Pagrindinis puslapis
METAR-TAF:

METAR-TAF

Oro uostai :

Tefė, Amazonė, Brazilija

platuma: 03-22S, ilguma: 064-41W, Aukštis: 47 m

Dabartinis oras

Ataskaita buvo paskelbta 57 minutes, ne 22:45 UTC
Vėjas 2 kt iš Šiaurės Rytų
Temperatūra 28°C
Drėgmė 89%
Slėgis 1008 hPa
Matomumas 10 km arba daugiau
nėra debesų žemiau 1500 m ir nėra kamuolinių lietaus debesų

METAR: SBTF 052245Z 05002KT CAVOK 28/26 Q1008

Laikas: 19:42 (23:42 UTC)

Prognozė

Ataskaita buvo paskelbta 2 valandos ir 42 minutes, ne 21:00 UTC
Prognozė galioja nuo 06 metu 00 UTC su 06 metu 12 UTC
Vėjas 3 kt iš Šiaurės/Šiaurės Rytų
Matomumas 10 km arba daugiau
Išsisklaidę debesys ne aukštis 2000 ft
Tikimybė 30%
nuo 06 metu 00 UTC su 06 metu 04 UTC
Su prošvaistėmis ne aukštis 2000 ft
lietus
Tapsmas
nuo 06 metu 10 UTC su 06 metu 12 UTC
Išsisklaidę debesys ne aukštis 2500 ft

TAF: SBTF 052100Z 0600/0612 02003KT 9999 SCT020 TN25/0609Z TX26/0611Z PROB30 0600/0604 RA BKN020 BECMG 0610/0612 SCT025 RMK PEW

Orai ataskaitas ir orų prognozės (METAR, TAF).

turimą stotys yra geltonos ir raudonos taškus žemėlapyje.

Perkelti pele per norėdami pamatyti stoties vardą.

Tada spustelėkite, norėdami matyti oro stebėjimo ir prognozės.

Norėdami pakeisti žemėlapį: spustelėkite ant žalios mygtukų su juodo kryžiaus žemyn,; žalią mygtuką su brūkšneliu, jei norite nutolinti; arba žalių rodyklių gretimoms žemėlapius.


METAR-TAF: